sensor_id;sensor_type;location;lat;lon;timestamp;pressure;altitude;pressure_sealevel;temperature;humidity
75359;BME280;64046;51.978;5.934;2023-04-06T00:01:09;101743.97;;;10.05;45.95
75359;BME280;64046;51.978;5.934;2023-04-06T00:03:39;101745.38;;;9.86;45.96
75359;BME280;64046;51.978;5.934;2023-04-06T00:06:08;101738.47;;;9.83;46.04
75359;BME280;64046;51.978;5.934;2023-04-06T00:08:37;101731.47;;;9.84;45.97
75359;BME280;64046;51.978;5.934;2023-04-06T00:11:07;101727.13;;;9.84;46.02
75359;BME280;64046;51.978;5.934;2023-04-06T00:13:36;101729.97;;;9.75;45.98
75359;BME280;64046;51.978;5.934;2023-04-06T00:16:08;101729.06;;;9.76;46.41
75359;BME280;64046;51.978;5.934;2023-04-06T00:18:38;101731.88;;;9.68;46.34
75359;BME280;64046;51.978;5.934;2023-04-06T00:21:07;101726.84;;;9.61;46.23
75359;BME280;64046;51.978;5.934;2023-04-06T00:23:36;101725.09;;;9.60;46.35
75359;BME280;64046;51.978;5.934;2023-04-06T00:26:05;101722.50;;;9.60;46.31
75359;BME280;64046;51.978;5.934;2023-04-06T00:28:34;101715.56;;;9.59;46.54
75359;BME280;64046;51.978;5.934;2023-04-06T00:31:03;101716.38;;;9.61;46.58
75359;BME280;64046;51.978;5.934;2023-04-06T00:33:35;101713.63;;;9.65;46.62
75359;BME280;64046;51.978;5.934;2023-04-06T00:36:05;101709.88;;;9.41;46.92
75359;BME280;64046;51.978;5.934;2023-04-06T00:38:34;101711.94;;;9.30;47.13
75359;BME280;64046;51.978;5.934;2023-04-06T00:41:04;101695.41;;;9.28;47.23
75359;BME280;64046;51.978;5.934;2023-04-06T00:43:33;101697.28;;;9.21;47.06
75359;BME280;64046;51.978;5.934;2023-04-06T00:46:02;101697.25;;;9.24;46.97
75359;BME280;64046;51.978;5.934;2023-04-06T00:48:34;101705.19;;;9.20;47.09
75359;BME280;64046;51.978;5.934;2023-04-06T00:51:04;101700.03;;;9.16;46.91
75359;BME280;64046;51.978;5.934;2023-04-06T00:53:33;101693.03;;;9.18;46.99
75359;BME280;64046;51.978;5.934;2023-04-06T00:56:02;101695.59;;;9.20;46.98
75359;BME280;64046;51.978;5.934;2023-04-06T00:58:41;101694.78;;;9.16;46.65
75359;BME280;64046;51.978;5.934;2023-04-06T01:01:11;101694.84;;;9.15;46.69
75359;BME280;64046;51.978;5.934;2023-04-06T01:03:45;101691.91;;;9.29;46.60
75359;BME280;64046;51.978;5.934;2023-04-06T01:06:17;101687.91;;;9.12;46.62
75359;BME280;64046;51.978;5.934;2023-04-06T01:08:55;101687.13;;;9.10;46.45
75359;BME280;64046;51.978;5.934;2023-04-06T01:11:26;101679.47;;;9.01;46.56
75359;BME280;64046;51.978;5.934;2023-04-06T01:13:56;101669.97;;;8.98;46.48
75359;BME280;64046;51.978;5.934;2023-04-06T01:16:28;101671.75;;;8.96;46.69
75359;BME280;64046;51.978;5.934;2023-04-06T01:19:15;101668.84;;;9.09;46.53
75359;BME280;64046;51.978;5.934;2023-04-06T01:21:49;101662.09;;;9.00;46.56
75359;BME280;64046;51.978;5.934;2023-04-06T01:24:33;101664.34;;;9.14;46.55
75359;BME280;64046;51.978;5.934;2023-04-06T01:27:18;101662.09;;;9.00;46.74
75359;BME280;64046;51.978;5.934;2023-04-06T01:30:07;101660.94;;;9.12;46.77
75359;BME280;64046;51.978;5.934;2023-04-06T01:32:46;101656.75;;;9.05;46.83
75359;BME280;64046;51.978;5.934;2023-04-06T01:35:22;101648.06;;;9.03;46.79
75359;BME280;64046;51.978;5.934;2023-04-06T01:38:01;101653.38;;;8.99;46.74
75359;BME280;64046;51.978;5.934;2023-04-06T01:40:36;101646.88;;;9.16;46.95
75359;BME280;64046;51.978;5.934;2023-04-06T01:43:06;101646.31;;;9.03;47.12
75359;BME280;64046;51.978;5.934;2023-04-06T01:45:45;101646.28;;;9.05;47.28
75359;BME280;64046;51.978;5.934;2023-04-06T01:48:18;101647.19;;;9.04;47.25
75359;BME280;64046;51.978;5.934;2023-04-06T01:50:48;101639.34;;;9.04;47.01
75359;BME280;64046;51.978;5.934;2023-04-06T01:53:23;101632.38;;;9.03;46.91
75359;BME280;64046;51.978;5.934;2023-04-06T01:56:01;101642.47;;;9.18;46.92
75359;BME280;64046;51.978;5.934;2023-04-06T01:58:40;101638.56;;;9.00;46.95
75359;BME280;64046;51.978;5.934;2023-04-06T02:01:11;101630.69;;;9.02;47.18
75359;BME280;64046;51.978;5.934;2023-04-06T02:03:51;101628.09;;;9.00;47.15
75359;BME280;64046;51.978;5.934;2023-04-06T02:06:21;101635.09;;;8.98;47.20
75359;BME280;64046;51.978;5.934;2023-04-06T02:08:50;101617.00;;;8.90;47.55
75359;BME280;64046;51.978;5.934;2023-04-06T02:11:22;101631.50;;;9.04;47.42
75359;BME280;64046;51.978;5.934;2023-04-06T02:13:55;101629.97;;;8.95;47.54
75359;BME280;64046;51.978;5.934;2023-04-06T02:16:29;101623.25;;;8.85;47.63
75359;BME280;64046;51.978;5.934;2023-04-06T02:18:58;101615.50;;;8.81;47.70
75359;BME280;64046;51.978;5.934;2023-04-06T02:21:27;101618.13;;;8.80;47.73
75359;BME280;64046;51.978;5.934;2023-04-06T02:23:56;101611.19;;;8.79;47.63
75359;BME280;64046;51.978;5.934;2023-04-06T02:26:28;101616.00;;;8.96;47.69
75359;BME280;64046;51.978;5.934;2023-04-06T02:28:57;101609.38;;;8.81;47.92
75359;BME280;64046;51.978;5.934;2023-04-06T02:31:28;101606.81;;;8.79;47.87
75359;BME280;64046;51.978;5.934;2023-04-06T02:33:57;101611.25;;;8.76;48.04
75359;BME280;64046;51.978;5.934;2023-04-06T02:36:29;101601.75;;;8.73;47.97
75359;BME280;64046;51.978;5.934;2023-04-06T02:38:58;101606.00;;;8.77;48.03
75359;BME280;64046;51.978;5.934;2023-04-06T02:41:30;101602.25;;;8.88;47.95
75359;BME280;64046;51.978;5.934;2023-04-06T02:44:00;101601.75;;;8.73;48.08
75359;BME280;64046;51.978;5.934;2023-04-06T02:46:38;101597.34;;;8.74;48.32
75359;BME280;64046;51.978;5.934;2023-04-06T02:49:07;101599.09;;;8.75;48.44
75359;BME280;64046;51.978;5.934;2023-04-06T02:51:36;101597.44;;;8.71;48.67
75359;BME280;64046;51.978;5.934;2023-04-06T02:54:41;101592.41;;;8.63;48.68
75359;BME280;64046;51.978;5.934;2023-04-06T02:57:14;101594.06;;;8.67;48.72
75359;BME280;64046;51.978;5.934;2023-04-06T02:59:45;101589.22;;;8.50;49.02
75359;BME280;64046;51.978;5.934;2023-04-06T03:02:23;101585.78;;;8.48;48.75
75359;BME280;64046;51.978;5.934;2023-04-06T03:04:56;101588.34;;;8.51;48.59
75359;BME280;64046;51.978;5.934;2023-04-06T03:07:32;101586.53;;;8.53;48.62
75359;BME280;64046;51.978;5.934;2023-04-06T03:10:01;101580.38;;;8.56;48.54
75359;BME280;64046;51.978;5.934;2023-04-06T03:12:34;101581.69;;;8.74;48.51
75359;BME280;64046;51.978;5.934;2023-04-06T03:15:17;101580.22;;;8.62;48.42
75359;BME280;64046;51.978;5.934;2023-04-06T03:17:51;101575.81;;;8.65;48.54
75359;BME280;64046;51.978;5.934;2023-04-06T03:20:34;101582.81;;;8.63;48.53
75359;BME280;64046;51.978;5.934;2023-04-06T03:23:03;101577.63;;;8.62;48.62
75359;BME280;64046;51.978;5.934;2023-04-06T03:25:37;101578.53;;;8.59;48.64
75359;BME280;64046;51.978;5.934;2023-04-06T03:28:11;101567.81;;;8.72;48.67
75359;BME280;64046;51.978;5.934;2023-04-06T03:30:49;101575.81;;;8.65;48.63
75359;BME280;64046;51.978;5.934;2023-04-06T03:33:25;101567.13;;;8.63;48.67
75359;BME280;64046;51.978;5.934;2023-04-06T03:35:55;101568.81;;;8.66;48.57
75359;BME280;64046;51.978;5.934;2023-04-06T03:38:26;101570.53;;;8.67;48.47
75359;BME280;64046;51.978;5.934;2023-04-06T03:40:55;101570.63;;;8.64;48.83
75359;BME280;64046;51.978;5.934;2023-04-06T03:43:29;101565.13;;;8.75;48.85
75359;BME280;64046;51.978;5.934;2023-04-06T03:45:58;101564.59;;;8.60;49.02
75359;BME280;64046;51.978;5.934;2023-04-06T03:48:28;101567.22;;;8.60;49.13
75359;BME280;64046;51.978;5.934;2023-04-06T03:51:00;101564.47;;;8.65;49.21
75359;BME280;64046;51.978;5.934;2023-04-06T03:53:30;101559.13;;;8.71;49.08
75359;BME280;64046;51.978;5.934;2023-04-06T03:55:59;101555.59;;;8.72;49.20
75359;BME280;64046;51.978;5.934;2023-04-06T03:58:30;101555.13;;;8.91;48.92
75359;BME280;64046;51.978;5.934;2023-04-06T04:01:00;101552.91;;;8.75;49.10
75359;BME280;64046;51.978;5.934;2023-04-06T04:03:29;101547.66;;;8.77;49.24
75359;BME280;64046;51.978;5.934;2023-04-06T04:05:58;101556.31;;;8.79;49.21
75359;BME280;64046;51.978;5.934;2023-04-06T04:08:27;101553.66;;;8.80;49.28
75359;BME280;64046;51.978;5.934;2023-04-06T04:10:56;101559.72;;;8.81;49.46
75359;BME280;64046;51.978;5.934;2023-04-06T04:13:25;101555.28;;;8.85;49.59
75359;BME280;64046;51.978;5.934;2023-04-06T04:15:57;101557.44;;;9.03;49.32
75359;BME280;64046;51.978;5.934;2023-04-06T04:18:27;101558.66;;;8.90;49.33
75359;BME280;64046;51.978;5.934;2023-04-06T04:20:56;101557.72;;;8.92;49.65
75359;BME280;64046;51.978;5.934;2023-04-06T04:23:25;101558.59;;;8.93;49.73
75359;BME280;64046;51.978;5.934;2023-04-06T04:25:54;101561.16;;;8.94;49.61
75359;BME280;64046;51.978;5.934;2023-04-06T04:28:23;101562.84;;;8.95;49.56
75359;BME280;64046;51.978;5.934;2023-04-06T04:30:57;101562.41;;;9.12;49.45
75359;BME280;64046;51.978;5.934;2023-04-06T04:33:29;101567.91;;;9.03;49.63
75359;BME280;64046;51.978;5.934;2023-04-06T04:36:01;101566.06;;;9.07;49.38
75359;BME280;64046;51.978;5.934;2023-04-06T04:38:37;101567.72;;;9.09;49.40
75359;BME280;64046;51.978;5.934;2023-04-06T04:41:06;101566.00;;;9.10;49.44
75359;BME280;64046;51.978;5.934;2023-04-06T04:43:38;101568.53;;;9.13;49.44
75359;BME280;64046;51.978;5.934;2023-04-06T04:46:10;101569.16;;;9.21;49.35
75359;BME280;64046;51.978;5.934;2023-04-06T04:48:42;101559.97;;;9.06;49.44
75359;BME280;64046;51.978;5.934;2023-04-06T04:51:11;101557.22;;;9.11;49.42
75359;BME280;64046;51.978;5.934;2023-04-06T04:53:55;101552.03;;;9.09;49.49
75359;BME280;64046;51.978;5.934;2023-04-06T04:56:28;101556.25;;;9.15;49.35
75359;BME280;64046;51.978;5.934;2023-04-06T04:59:08;101554.69;;;9.08;49.41
75359;BME280;64046;51.978;5.934;2023-04-06T05:01:42;101549.97;;;9.22;49.43
75359;BME280;64046;51.978;5.934;2023-04-06T05:04:11;101546.09;;;9.04;49.58
75359;BME280;64046;51.978;5.934;2023-04-06T05:06:41;101558.41;;;8.99;49.92
75359;BME280;64046;51.978;5.934;2023-04-06T05:09:10;101552.41;;;8.95;49.99
75359;BME280;64046;51.978;5.934;2023-04-06T05:11:41;101551.63;;;8.92;50.06
75359;BME280;64046;51.978;5.934;2023-04-06T05:14:11;101553.22;;;8.97;50.06
75359;BME280;64046;51.978;5.934;2023-04-06T05:16:43;101543.22;;;9.13;50.08
75359;BME280;64046;51.978;5.934;2023-04-06T05:19:13;101543.63;;;8.98;50.39
75359;BME280;64046;51.978;5.934;2023-04-06T05:21:44;101554.03;;;8.99;50.29
75359;BME280;64046;51.978;5.934;2023-04-06T05:24:14;101550.56;;;8.99;50.40
75359;BME280;64046;51.978;5.934;2023-04-06T05:26:45;101544.41;;;9.02;50.21
75359;BME280;64046;51.978;5.934;2023-04-06T05:29:20;101539.84;;;9.10;50.21
75359;BME280;64046;51.978;5.934;2023-04-06T05:31:53;101543.63;;;9.31;50.19
75359;BME280;64046;51.978;5.934;2023-04-06T05:34:22;101541.31;;;9.20;50.11
75359;BME280;64046;51.978;5.934;2023-04-06T05:36:51;101544.72;;;9.22;50.20
75359;BME280;64046;51.978;5.934;2023-04-06T05:39:24;101540.16;;;9.30;50.03
75359;BME280;64046;51.978;5.934;2023-04-06T05:41:54;101528.63;;;9.38;49.95
75359;BME280;64046;51.978;5.934;2023-04-06T05:44:33;101534.41;;;9.49;49.81
75359;BME280;64046;51.978;5.934;2023-04-06T05:47:10;101534.66;;;9.71;49.91
75359;BME280;64046;51.978;5.934;2023-04-06T05:49:41;101533.84;;;9.69;49.49
75359;BME280;64046;51.978;5.934;2023-04-06T05:52:18;101526.97;;;9.65;49.36
75359;BME280;64046;51.978;5.934;2023-04-06T05:54:49;101530.19;;;9.75;49.07
75359;BME280;64046;51.978;5.934;2023-04-06T05:57:18;101534.44;;;9.79;48.75
75359;BME280;64046;51.978;5.934;2023-04-06T05:59:48;101531.69;;;9.83;48.66
75359;BME280;64046;51.978;5.934;2023-04-06T06:02:22;101538.84;;;10.07;48.39
75359;BME280;64046;51.978;5.934;2023-04-06T06:04:53;101528.66;;;9.97;48.25
75359;BME280;64046;51.978;5.934;2023-04-06T06:07:24;101528.47;;;10.03;48.19
75359;BME280;64046;51.978;5.934;2023-04-06T06:09:58;101530.00;;;10.11;48.05
75359;BME280;64046;51.978;5.934;2023-04-06T06:12:31;101528.13;;;10.14;47.83
75359;BME280;64046;51.978;5.934;2023-04-06T06:15:01;101528.94;;;10.16;47.77
75359;BME280;64046;51.978;5.934;2023-04-06T06:17:38;101524.06;;;10.34;47.78
75359;BME280;64046;51.978;5.934;2023-04-06T06:20:08;101531.13;;;10.30;47.78
75359;BME280;64046;51.978;5.934;2023-04-06T06:22:38;101524.28;;;10.26;47.60
75359;BME280;64046;51.978;5.934;2023-04-06T06:25:11;101526.75;;;10.31;47.49
75359;BME280;64046;51.978;5.934;2023-04-06T06:27:42;101532.75;;;10.34;47.45
75359;BME280;64046;51.978;5.934;2023-04-06T06:30:11;101530.59;;;10.49;47.12
75359;BME280;64046;51.978;5.934;2023-04-06T06:32:45;101527.38;;;10.66;47.15
75359;BME280;64046;51.978;5.934;2023-04-06T06:35:14;101530.25;;;10.58;46.83
75359;BME280;64046;51.978;5.934;2023-04-06T06:37:44;101536.28;;;10.62;46.89
75359;BME280;64046;51.978;5.934;2023-04-06T06:40:16;101538.78;;;10.65;46.94
75359;BME280;64046;51.978;5.934;2023-04-06T06:42:48;101541.19;;;10.71;46.82
75359;BME280;64046;51.978;5.934;2023-04-06T06:45:24;101540.19;;;10.75;46.76
75359;BME280;64046;51.978;5.934;2023-04-06T06:47:58;101534.94;;;11.02;46.67
75359;BME280;64046;51.978;5.934;2023-04-06T06:50:27;101532.34;;;11.00;46.40
75359;BME280;64046;51.978;5.934;2023-04-06T06:52:56;101532.75;;;11.15;46.33
75359;BME280;64046;51.978;5.934;2023-04-06T06:55:25;101523.50;;;11.28;46.08
75359;BME280;64046;51.978;5.934;2023-04-06T06:57:55;101522.31;;;11.37;46.03
75359;BME280;64046;51.978;5.934;2023-04-06T07:00:24;101520.41;;;11.42;46.03
75359;BME280;64046;51.978;5.934;2023-04-06T07:02:53;101523.38;;;11.56;45.92
75359;BME280;64046;51.978;5.934;2023-04-06T07:05:25;101509.31;;;11.81;45.60
75359;BME280;64046;51.978;5.934;2023-04-06T07:07:56;101512.25;;;11.72;45.51
75359;BME280;64046;51.978;5.934;2023-04-06T07:10:26;101511.09;;;11.81;45.48
75359;BME280;64046;51.978;5.934;2023-04-06T07:12:55;101503.31;;;11.77;45.42
75359;BME280;64046;51.978;5.934;2023-04-06T07:15:24;101497.09;;;11.80;45.50
75359;BME280;64046;51.978;5.934;2023-04-06T07:17:53;101506.38;;;11.89;45.59
75359;BME280;64046;51.978;5.934;2023-04-06T07:20:26;101500.25;;;12.12;45.49
75359;BME280;64046;51.978;5.934;2023-04-06T07:22:55;101506.78;;;12.02;45.72
75359;BME280;64046;51.978;5.934;2023-04-06T07:25:25;101496.13;;;12.06;45.46
75359;BME280;64046;51.978;5.934;2023-04-06T07:27:54;101501.38;;;12.06;45.38
75359;BME280;64046;51.978;5.934;2023-04-06T07:30:24;101496.72;;;12.13;45.32
75359;BME280;64046;51.978;5.934;2023-04-06T07:32:55;101500.66;;;12.23;45.13
75359;BME280;64046;51.978;5.934;2023-04-06T07:35:28;101498.03;;;12.45;44.98
75359;BME280;64046;51.978;5.934;2023-04-06T07:37:57;101495.00;;;12.34;44.80
75359;BME280;64046;51.978;5.934;2023-04-06T07:40:26;101499.22;;;12.38;44.56
75359;BME280;64046;51.978;5.934;2023-04-06T07:42:57;101504.13;;;12.46;44.47
75359;BME280;64046;51.978;5.934;2023-04-06T07:45:28;101505.41;;;12.58;43.98
75359;BME280;64046;51.978;5.934;2023-04-06T07:47:58;101493.97;;;12.59;43.77
75359;BME280;64046;51.978;5.934;2023-04-06T07:50:30;101500.53;;;12.69;43.88
75359;BME280;64046;51.978;5.934;2023-04-06T07:52:59;101501.16;;;12.55;44.05
75359;BME280;64046;51.978;5.934;2023-04-06T07:55:29;101500.19;;;12.56;43.99
75359;BME280;64046;51.978;5.934;2023-04-06T07:57:59;101498.66;;;12.52;44.04
75359;BME280;64046;51.978;5.934;2023-04-06T08:00:28;101501.31;;;12.51;44.27
75359;BME280;64046;51.978;5.934;2023-04-06T08:02:57;101492.66;;;12.49;44.20
75359;BME280;64046;51.978;5.934;2023-04-06T08:05:26;101497.06;;;12.48;44.35
75359;BME280;64046;51.978;5.934;2023-04-06T08:07:58;101491.81;;;12.69;44.59
75359;BME280;64046;51.978;5.934;2023-04-06T08:10:27;101495.00;;;12.55;44.75
75359;BME280;64046;51.978;5.934;2023-04-06T08:12:56;101494.25;;;12.53;44.73
75359;BME280;64046;51.978;5.934;2023-04-06T08:15:25;101488.91;;;12.54;44.79
75359;BME280;64046;51.978;5.934;2023-04-06T08:17:54;101488.72;;;12.59;44.74
75359;BME280;64046;51.978;5.934;2023-04-06T08:20:24;101485.25;;;12.58;44.81
75359;BME280;64046;51.978;5.934;2023-04-06T08:22:53;101486.88;;;12.61;45.07
75359;BME280;64046;51.978;5.934;2023-04-06T08:25:25;101487.94;;;12.77;45.01
75359;BME280;64046;51.978;5.934;2023-04-06T08:27:54;101484.84;;;12.68;44.96
75359;BME280;64046;51.978;5.934;2023-04-06T08:30:23;101482.88;;;12.73;44.77
75359;BME280;64046;51.978;5.934;2023-04-06T08:32:53;101477.28;;;12.80;44.80
75359;BME280;64046;51.978;5.934;2023-04-06T08:35:22;101478.72;;;12.88;44.39
75359;BME280;64046;51.978;5.934;2023-04-06T08:37:51;101481.22;;;12.91;44.22
75359;BME280;64046;51.978;5.934;2023-04-06T08:40:20;101481.88;;;12.96;44.11
75359;BME280;64046;51.978;5.934;2023-04-06T08:42:55;101480.09;;;13.17;43.57
75359;BME280;64046;51.978;5.934;2023-04-06T08:45:24;101474.59;;;13.03;43.67
75359;BME280;64046;51.978;5.934;2023-04-06T08:47:54;101476.78;;;13.12;43.59
75359;BME280;64046;51.978;5.934;2023-04-06T08:50:29;101480.53;;;13.27;43.34
75359;BME280;64046;51.978;5.934;2023-04-06T08:52:59;101475.38;;;13.24;43.09
75359;BME280;64046;51.978;5.934;2023-04-06T08:55:28;101471.22;;;13.20;42.82
75359;BME280;64046;51.978;5.934;2023-04-06T08:58:00;101474.06;;;13.34;42.79
75359;BME280;64046;51.978;5.934;2023-04-06T09:00:30;101467.56;;;13.22;42.99
75359;BME280;64046;51.978;5.934;2023-04-06T09:03:00;101467.50;;;13.24;43.02
75359;BME280;64046;51.978;5.934;2023-04-06T09:05:30;101476.13;;;13.27;43.15
75359;BME280;64046;51.978;5.934;2023-04-06T09:07:59;101482.03;;;13.32;43.17
75359;BME280;64046;51.978;5.934;2023-04-06T09:10:29;101478.16;;;13.41;43.14
75359;BME280;64046;51.978;5.934;2023-04-06T09:13:08;101477.16;;;13.63;42.90
75359;BME280;64046;51.978;5.934;2023-04-06T09:15:37;101477.03;;;13.47;43.00
75359;BME280;64046;51.978;5.934;2023-04-06T09:18:07;101480.34;;;13.50;43.13
75359;BME280;64046;51.978;5.934;2023-04-06T09:20:36;101473.75;;;13.61;43.01
75359;BME280;64046;51.978;5.934;2023-04-06T09:23:05;101476.09;;;13.67;43.07
75359;BME280;64046;51.978;5.934;2023-04-06T09:25:35;101476.88;;;13.69;42.84
75359;BME280;64046;51.978;5.934;2023-04-06T09:28:07;101474.81;;;13.76;43.03
75359;BME280;64046;51.978;5.934;2023-04-06T09:30:36;101472.78;;;13.81;42.87
75359;BME280;64046;51.978;5.934;2023-04-06T09:33:05;101481.06;;;13.92;42.84
75359;BME280;64046;51.978;5.934;2023-04-06T09:35:34;101469.50;;;13.95;42.89
75359;BME280;64046;51.978;5.934;2023-04-06T09:38:10;101476.16;;;14.21;42.65
75359;BME280;64046;51.978;5.934;2023-04-06T09:40:48;101475.00;;;14.27;42.85
75359;BME280;64046;51.978;5.934;2023-04-06T09:43:26;101472.16;;;14.31;42.89
75359;BME280;64046;51.978;5.934;2023-04-06T09:45:56;101469.38;;;14.15;43.35
75359;BME280;64046;51.978;5.934;2023-04-06T09:48:26;101463.69;;;14.25;43.39
75359;BME280;64046;51.978;5.934;2023-04-06T09:51:00;101466.94;;;14.30;43.25
75359;BME280;64046;51.978;5.934;2023-04-06T09:53:35;101469.28;;;14.36;43.24
75359;BME280;64046;51.978;5.934;2023-04-06T09:56:08;101465.41;;;14.43;43.26
75359;BME280;64046;51.978;5.934;2023-04-06T09:58:44;101465.72;;;14.54;43.36
75359;BME280;64046;51.978;5.934;2023-04-06T10:01:17;101460.22;;;14.59;43.33
75359;BME280;64046;51.978;5.934;2023-04-06T10:03:52;101462.56;;;14.65;43.53
75359;BME280;64046;51.978;5.934;2023-04-06T10:06:27;101463.19;;;14.70;43.27
75359;BME280;64046;51.978;5.934;2023-04-06T10:08:59;101464.03;;;14.71;43.29
75359;BME280;64046;51.978;5.934;2023-04-06T10:11:30;101462.59;;;14.81;43.46
75359;BME280;64046;51.978;5.934;2023-04-06T10:14:02;101458.34;;;14.96;43.09
75359;BME280;64046;51.978;5.934;2023-04-06T10:16:32;101470.81;;;14.93;42.92
75359;BME280;64046;51.978;5.934;2023-04-06T10:19:06;101468.22;;;15.09;42.54
75359;BME280;64046;51.978;5.934;2023-04-06T10:21:39;101468.31;;;15.07;42.49
75359;BME280;64046;51.978;5.934;2023-04-06T10:24:10;101461.19;;;15.09;42.25
75359;BME280;64046;51.978;5.934;2023-04-06T10:26:39;101469.44;;;15.03;42.30
75359;BME280;64046;51.978;5.934;2023-04-06T10:29:11;101472.78;;;15.22;41.77
75359;BME280;64046;51.978;5.934;2023-04-06T10:31:42;101470.31;;;15.19;41.70
75359;BME280;64046;51.978;5.934;2023-04-06T10:34:12;101471.75;;;15.09;41.51
75359;BME280;64046;51.978;5.934;2023-04-06T10:36:41;101472.66;;;15.08;41.61
75359;BME280;64046;51.978;5.934;2023-04-06T10:39:11;101473.47;;;15.10;41.30
75359;BME280;64046;51.978;5.934;2023-04-06T10:41:42;101471.94;;;15.22;41.77
75359;BME280;64046;51.978;5.934;2023-04-06T10:44:23;101464.81;;;15.40;41.40
75359;BME280;64046;51.978;5.934;2023-04-06T10:46:53;101465.31;;;15.31;41.86
75359;BME280;64046;51.978;5.934;2023-04-06T10:49:24;101464.66;;;15.43;41.98
75359;BME280;64046;51.978;5.934;2023-04-06T10:51:54;101458.41;;;15.44;41.95
75359;BME280;64046;51.978;5.934;2023-04-06T10:54:26;101464.56;;;15.45;41.95
75359;BME280;64046;51.978;5.934;2023-04-06T10:56:56;101461.56;;;15.35;42.25
75359;BME280;64046;51.978;5.934;2023-04-06T10:59:28;101465.84;;;15.53;42.16
75359;BME280;64046;51.978;5.934;2023-04-06T11:01:57;101460.47;;;15.39;42.25
75359;BME280;64046;51.978;5.934;2023-04-06T11:04:26;101463.63;;;15.46;42.02
75359;BME280;64046;51.978;5.934;2023-04-06T11:06:56;101460.50;;;15.55;42.11
75359;BME280;64046;51.978;5.934;2023-04-06T11:09:25;101457.84;;;15.55;42.41
75359;BME280;64046;51.978;5.934;2023-04-06T11:11:55;101460.94;;;15.63;42.35
75359;BME280;64046;51.978;5.934;2023-04-06T11:14:27;101463.75;;;15.76;42.43
75359;BME280;64046;51.978;5.934;2023-04-06T11:16:56;101459.88;;;15.66;42.50
75359;BME280;64046;51.978;5.934;2023-04-06T11:19:25;101463.31;;;15.68;42.58
75359;BME280;64046;51.978;5.934;2023-04-06T11:21:54;101468.41;;;15.71;42.58
75359;BME280;64046;51.978;5.934;2023-04-06T11:24:24;101458.38;;;15.78;42.89
75359;BME280;64046;51.978;5.934;2023-04-06T11:26:54;101460.00;;;15.80;42.85
75359;BME280;64046;51.978;5.934;2023-04-06T11:29:28;101461.28;;;15.89;42.97
75359;BME280;64046;51.978;5.934;2023-04-06T11:31:59;101457.78;;;15.88;42.89
75359;BME280;64046;51.978;5.934;2023-04-06T11:34:29;101460.00;;;15.80;43.12
75359;BME280;64046;51.978;5.934;2023-04-06T11:37:00;101445.31;;;15.74;43.07
75359;BME280;64046;51.978;5.934;2023-04-06T11:39:32;101455.78;;;15.60;43.53
75359;BME280;64046;51.978;5.934;2023-04-06T11:42:06;101455.78;;;15.60;43.65
75359;BME280;64046;51.978;5.934;2023-04-06T11:44:39;101443.63;;;15.73;43.74
75359;BME280;64046;51.978;5.934;2023-04-06T11:47:12;101444.13;;;15.64;44.03
75359;BME280;64046;51.978;5.934;2023-04-06T11:49:43;101446.00;;;15.62;44.48
75359;BME280;64046;51.978;5.934;2023-04-06T11:52:18;101443.44;;;15.61;44.89
75359;BME280;64046;51.978;5.934;2023-04-06T11:54:48;101446.00;;;15.46;45.37
75359;BME280;64046;51.978;5.934;2023-04-06T11:57:19;101451.09;;;15.49;46.14
75359;BME280;64046;51.978;5.934;2023-04-06T11:59:51;101449.13;;;15.53;46.63
75359;BME280;64046;51.978;5.934;2023-04-06T12:02:21;101452.63;;;15.37;47.73
75359;BME280;64046;51.978;5.934;2023-04-06T12:04:50;101453.03;;;15.30;48.70
75359;BME280;64046;51.978;5.934;2023-04-06T12:07:19;101450.56;;;15.27;50.00
75359;BME280;64046;51.978;5.934;2023-04-06T12:09:48;101452.66;;;15.20;51.18
75359;BME280;64046;51.978;5.934;2023-04-06T12:12:17;101453.84;;;15.14;52.24
75359;BME280;64046;51.978;5.934;2023-04-06T12:14:46;101451.28;;;15.13;52.76
75359;BME280;64046;51.978;5.934;2023-04-06T12:17:19;101442.72;;;15.25;53.45
75359;BME280;64046;51.978;5.934;2023-04-06T12:19:48;101456.47;;;14.98;54.13
75359;BME280;64046;51.978;5.934;2023-04-06T12:22:17;101460.44;;;14.90;54.92
75359;BME280;64046;51.978;5.934;2023-04-06T12:24:47;101454.69;;;14.81;55.61
75359;BME280;64046;51.978;5.934;2023-04-06T12:27:16;101454.94;;;14.77;57.61
75359;BME280;64046;51.978;5.934;2023-04-06T12:29:46;101452.78;;;14.67;59.22
75359;BME280;64046;51.978;5.934;2023-04-06T12:32:18;101464.81;;;14.73;59.46
75359;BME280;64046;51.978;5.934;2023-04-06T12:34:48;101454.53;;;14.49;60.36
75359;BME280;64046;51.978;5.934;2023-04-06T12:37:17;101457.41;;;14.45;60.82
75359;BME280;64046;51.978;5.934;2023-04-06T12:39:46;101456.63;;;14.43;61.24
75359;BME280;64046;51.978;5.934;2023-04-06T12:42:15;101448.88;;;14.40;62.10
75359;BME280;64046;51.978;5.934;2023-04-06T12:44:45;101450.44;;;14.26;62.92
75359;BME280;64046;51.978;5.934;2023-04-06T12:47:14;101448.53;;;14.11;63.77
75359;BME280;64046;51.978;5.934;2023-04-06T12:49:46;101446.78;;;14.11;64.04
75359;BME280;64046;51.978;5.934;2023-04-06T12:52:16;101437.72;;;13.80;66.00
75359;BME280;64046;51.978;5.934;2023-04-06T12:54:45;101440.72;;;13.73;66.50
75359;BME280;64046;51.978;5.934;2023-04-06T12:57:14;101433.16;;;13.65;68.13
75359;BME280;64046;51.978;5.934;2023-04-06T12:59:44;101437.16;;;13.55;68.76
75359;BME280;64046;51.978;5.934;2023-04-06T13:02:13;101433.03;;;13.49;69.71
75359;BME280;64046;51.978;5.934;2023-04-06T13:04:42;101430.41;;;13.49;69.66
75359;BME280;64046;51.978;5.934;2023-04-06T13:07:14;101438.44;;;13.65;70.16
75359;BME280;64046;51.978;5.934;2023-04-06T13:09:43;101430.47;;;13.47;70.80
75359;BME280;64046;51.978;5.934;2023-04-06T13:12:13;101426.13;;;13.46;71.74
75359;BME280;64046;51.978;5.934;2023-04-06T13:14:42;101433.56;;;13.38;71.93
75359;BME280;64046;51.978;5.934;2023-04-06T13:17:13;101426.69;;;13.34;72.89